Metar z połowy godziny Komunikat METAR ze strony awiacja.imgw.pl Metar G00 EPWA METAR EPWA 062230Z 25003KT 3300 -SN BR SCT002 BKN010 00/00 Q1009 NOSIG=